Terminal Aerodrome Forecast
Issued by NWS Green Bay, WI

Home | Current Version | Previous Version | Graphics & Text | Print | Product List | Glossary On
Versions: 1 2 3 4 5 6 7 8 9 10 11 12 13
000
FTUS43 KGRB 181134
TAFGRB
TAF
KGRB 181134Z 1812/1912 20009KT P6SM SKC WS020/23040KT
     FM181500 20015G23KT P6SM SKC
     FM182200 21013G18KT P6SM SCT250 WS020/25045KT
     FM190200 23010KT P6SM SCT250 WS020/25050KT
     FM190700 26006KT P6SM SKC=

USA.gov is the U.S. government's official web portal to all federal, state and local government web resources and services.